Winslow, Arizona
Current Conditions -  °F | °C
As of 12:56 AM on Tuesday 21 Oct 2014 (Local Time) from KINW Reporting Station
Clear Clear  
Wind Chill: 53°   Ceiling: Unl
Heat Index: 53°   Visibility: 10mi
Dew Point: 42°   Wind: 6mph
Humidity: 66%   Direction: 110°ESE
Pressure: 30.09"   Gusts: NA
Location:  35.02°N, 110.69°W
Report Text: KINW 210756Z AUTO 11005KT 10SM CLR 12/06 A3009 RMK AO2 SLP140 T01170056
Loading
Personal Weather Stations






























Interactive Weather Map New forecast layout! Learn more

10-Day Weather Forecast

Advertisements
Track Severe Weather on mobile